Recreio, Brazil
Current Conditions -  °F | °C
As of 2:00 PM on Monday 22 Dec 2014 (Local Time) from SBME Reporting Station
Few Clouds Few Clouds  
Wind Chill: 106°   Ceiling: Unl
Heat Index: 121°   Visibility: 6mi
Dew Point: 75°   Wind: 12mph
Humidity: 38%   Direction: 350°N
Pressure: 29.77"   Gusts: NA
Location:  21.52°S, 42.47°W
Report Text: SBME 221600Z 35010KT 9999 FEW025 41/24 Q1008
Loading
Personal Weather Stations






























Interactive Weather Map New forecast layout! Learn more

10-Day Weather Forecast

Advertisements
Track Severe Weather on mobile